Time;durP1;ratioP1;P1;durP2;ratioP2;P2;SDS_P1;SDS_P2;PMS_P1;PMS_P2;Temp;Humidity;BMP_temperature;BMP_pressure;BME280_temperature;BME280_humidity;BME280_pressure;Samples;Min_cycle;Max_cycle;Signal;HPM_P1;HPM_P2
2022/07/29 00:01:15;;;;;;;4.60;1.20;;;;;;;16.09;52.07;101157.80;107902;1273;61292;-86
2022/07/29 00:03:45;;;;;;;5.00;1.30;;;;;;;16.11;52.15;101155.55;107944;1273;75749;-86
2022/07/29 00:06:13;;;;;;;4.60;1.30;;;;;;;16.13;52.05;101149.66;108048;1274;72414;-87
2022/07/29 00:08:40;;;;;;;5.00;1.30;;;;;;;16.14;52.15;101148.48;107875;1274;72939;-87
2022/07/29 00:11:10;;;;;;;6.70;1.90;;;;;;;16.15;52.31;101145.39;107835;1273;61381;-86
2022/07/29 00:13:37;;;;;;;8.60;1.60;;;;;;;16.16;52.24;101141.36;107754;1273;61794;-86
2022/07/29 00:16:08;;;;;;;3.10;1.30;;;;;;;16.17;52.31;101137.09;108118;1273;75976;-85
2022/07/29 00:18:35;;;;;;;4.40;1.20;;;;;;;16.18;52.34;101130.05;107822;1274;71626;-86
2022/07/29 00:21:02;;;;;;;3.70;1.20;;;;;;;16.20;52.28;101133.22;108103;1274;74175;-86
2022/07/29 00:23:37;;;;;;;4.30;1.30;;;;;;;16.21;52.34;101135.85;107969;1274;61759;-86
2022/07/29 00:26:10;;;;;;;4.80;1.20;;;;;;;16.23;52.58;101135.65;108150;1274;61593;-85
2022/07/29 00:28:37;;;;;;;4.50;1.30;;;;;;;16.23;52.46;101132.98;108150;1274;75848;-86
2022/07/29 00:31:10;;;;;;;4.10;1.20;;;;;;;16.23;52.39;101126.55;107956;1275;71159;-86
2022/07/29 00:33:38;;;;;;;5.00;1.10;;;;;;;16.23;52.37;101121.37;107768;1276;74125;-86
2022/07/29 00:36:09;;;;;;;3.70;1.20;;;;;;;16.23;52.46;101122.56;107993;1274;60816;-86
2022/07/29 00:38:36;;;;;;;5.20;1.10;;;;;;;16.23;52.35;101124.87;107748;1276;61964;-86
2022/07/29 00:41:03;;;;;;;3.10;1.10;;;;;;;16.24;52.32;101120.17;107873;1274;75366;-86
2022/07/29 00:43:38;;;;;;;4.90;1.60;;;;;;;16.25;52.35;101117.86;108152;1274;71248;-86
2022/07/29 00:46:11;;;;;;;4.40;1.50;;;;;;;16.25;52.43;101114.41;107758;1274;72919;-86
2022/07/29 00:48:38;;;;;;;6.00;1.20;;;;;;;16.26;52.38;101110.38;107910;1276;60403;-86
2022/07/29 00:51:10;;;;;;;3.60;1.20;;;;;;;16.27;52.51;101112.60;107749;1276;60861;-86
2022/07/29 00:53:38;;;;;;;4.00;1.30;;;;;;;16.27;52.40;101109.77;108004;1274;74989;-87
2022/07/29 00:56:08;;;;;;;3.60;0.90;;;;;;;16.27;52.55;101107.61;107985;1274;71605;-87
2022/07/29 00:58:36;;;;;;;3.30;1.30;;;;;;;16.26;52.62;101112.89;107945;1274;74306;-87
2022/07/29 01:01:03;;;;;;;3.90;0.90;;;;;;;16.25;52.62;101108.17;107915;1274;61611;-87
2022/07/29 01:03:37;;;;;;;3.60;1.20;;;;;;;16.26;52.59;101110.30;107496;1276;59586;-86
2022/07/29 01:06:11;;;;;;;4.30;1.50;;;;;;;16.26;52.60;101106.17;107985;1276;75699;-87
2022/07/29 01:08:38;;;;;;;3.70;1.20;;;;;;;16.24;52.65;101103.30;107905;1274;72664;-86
2022/07/29 01:11:09;;;;;;;4.70;1.50;;;;;;;16.24;52.72;101098.93;107818;1274;74344;-87
2022/07/29 01:13:36;;;;;;;4.70;1.80;;;;;;;16.22;52.75;101092.54;108004;1276;60346;-87
2022/07/29 01:16:10;;;;;;;4.00;1.40;;;;;;;16.20;52.84;101088.37;108020;1274;60471;-87
2022/07/29 01:18:44;;;;;;;4.60;1.20;;;;;;;16.19;53.01;101085.65;107925;1274;74958;-86
2022/07/29 01:21:43;;;;;;;4.30;1.40;;;;;;;16.18;52.87;101080.84;107941;1274;71410;-87
2022/07/29 01:24:33;;;;;;;2.80;1.10;;;;;;;16.17;53.04;101083.30;108105;1273;71761;-87
2022/07/29 01:27:09;;;;;;;5.80;1.30;;;;;;;16.15;52.93;101080.05;107929;1274;60914;-87
2022/07/29 01:29:53;;;;;;;3.00;1.10;;;;;;;16.15;53.02;101078.02;108127;1274;60377;-87
2022/07/29 01:32:26;;;;;;;5.60;1.10;;;;;;;16.12;53.03;101076.00;107790;1276;76969;-87
2022/07/29 01:35:13;;;;;;;2.50;1.10;;;;;;;16.09;53.10;101074.84;107855;1276;71840;-86
2022/07/29 01:37:58;;;;;;;3.30;1.20;;;;;;;16.05;53.37;101073.34;108077;1274;74063;-86
2022/07/29 01:40:36;;;;;;;5.20;1.60;;;;;;;16.02;53.39;101072.23;108066;1273;60415;-86
2022/07/29 01:43:11;;;;;;;4.30;1.10;;;;;;;15.99;53.61;101067.11;108104;1274;61023;-87
2022/07/29 01:45:45;;;;;;;3.20;1.30;;;;;;;15.96;53.71;101065.90;107852;1274;74997;-87
2022/07/29 01:48:27;;;;;;;3.40;1.20;;;;;;;15.94;53.64;101065.04;108027;1274;71994;-87
2022/07/29 01:51:01;;;;;;;2.90;1.20;;;;;;;15.93;53.70;101060.02;108005;1274;73111;-87
2022/07/29 01:53:36;;;;;;;2.70;1.30;;;;;;;15.89;53.85;101059.92;108087;1274;60462;-87
2022/07/29 01:56:10;;;;;;;5.20;1.30;;;;;;;15.86;53.84;101058.05;108024;1274;61621;-87
2022/07/29 01:58:39;;;;;;;3.30;1.40;;;;;;;15.82;53.98;101059.08;107840;1275;74840;-87
2022/07/29 02:01:12;;;;;;;4.60;1.30;;;;;;;15.79;54.10;101056.60;107801;1274;71457;-87
2022/07/29 02:03:44;;;;;;;3.80;1.30;;;;;;;15.76;54.20;101057.00;107907;1276;73259;-87
2022/07/29 02:06:16;;;;;;;4.70;1.30;;;;;;;15.73;54.38;101053.86;107849;1276;59480;-87
2022/07/29 02:08:45;;;;;;;6.80;2.10;;;;;;;15.70;54.51;101053.58;108055;1274;60473;-87
2022/07/29 02:11:13;;;;;;;7.80;1.60;;;;;;;15.66;54.51;101053.30;107967;1273;76005;-87
2022/07/29 02:13:41;;;;;;;3.50;1.40;;;;;;;15.64;54.55;101049.50;107925;1274;71528;-87
2022/07/29 02:16:10;;;;;;;4.50;1.40;;;;;;;15.60;54.65;101048.93;108128;1274;73273;-87
2022/07/29 02:18:40;;;;;;;3.00;1.30;;;;;;;15.57;54.82;101049.11;107904;1274;60589;-87
2022/07/29 02:21:12;;;;;;;4.00;1.20;;;;;;;15.54;54.94;101050.38;108026;1273;61051;-87
2022/07/29 02:23:43;;;;;;;5.20;1.60;;;;;;;15.51;55.06;101046.20;108095;1274;75340;-87
2022/07/29 02:26:19;;;;;;;4.40;1.30;;;;;;;15.46;55.22;101042.52;108103;1275;71359;-87
2022/07/29 02:28:48;;;;;;;3.70;1.30;;;;;;;15.42;55.32;101039.13;107873;1274;73339;-87
2022/07/29 02:31:18;;;;;;;5.60;1.60;;;;;;;15.38;55.27;101040.75;108101;1274;60657;-87
2022/07/29 02:33:46;;;;;;;4.10;1.70;;;;;;;15.33;55.56;101034.72;107855;1274;60645;-87
2022/07/29 02:36:15;;;;;;;4.30;1.70;;;;;;;15.30;55.50;101038.34;108106;1274;74965;-87
2022/07/29 02:38:53;;;;;;;3.60;1.60;;;;;;;15.25;55.59;101034.12;108007;1274;73004;-87
2022/07/29 02:41:26;;;;;;;3.60;1.30;;;;;;;15.22;55.69;101035.33;107874;1276;73175;-87
2022/07/29 02:44:06;;;;;;;5.50;1.40;;;;;;;15.19;56.05;101036.91;107931;1273;60687;-87
2022/07/29 02:46:35;;;;;;;4.10;1.30;;;;;;;15.18;56.13;101034.60;108021;1274;61632;-87
2022/07/29 02:49:22;;;;;;;3.10;1.30;;;;;;;15.16;56.04;101033.89;107725;1274;75166;-87
2022/07/29 02:51:54;;;;;;;5.70;1.50;;;;;;;15.15;56.42;101033.48;107784;1274;71661;-87
2022/07/29 02:54:42;;;;;;;7.40;1.60;;;;;;;15.14;56.56;101033.97;107703;1274;72829;-87
2022/07/29 02:57:18;;;;;;;3.50;1.20;;;;;;;15.11;56.50;101029.71;107864;1274;61259;-87
2022/07/29 02:59:51;;;;;;;3.50;1.20;;;;;;;15.14;56.76;101029.61;108036;1274;61492;-87
2022/07/29 03:02:18;;;;;;;2.60;1.60;;;;;;;15.14;56.63;101030.92;107717;1274;76053;-87
2022/07/29 03:04:48;;;;;;;5.50;1.50;;;;;;;15.15;56.84;101028.38;107722;1276;71813;-87
2022/07/29 03:07:19;;;;;;;5.70;1.40;;;;;;;15.15;56.82;101028.91;107945;1274;73939;-88
2022/07/29 03:09:47;;;;;;;5.10;1.40;;;;;;;15.15;56.87;101026.54;107969;1273;61328;-87
2022/07/29 03:12:14;;;;;;;4.30;1.40;;;;;;;15.15;56.98;101024.10;107998;1274;60386;-87
2022/07/29 03:14:43;;;;;;;4.00;1.20;;;;;;;15.13;56.95;101020.44;108147;1274;75065;-87
2022/07/29 03:17:11;;;;;;;4.30;1.10;;;;;;;15.11;57.19;101018.77;107955;1274;71757;-87
2022/07/29 03:19:38;;;;;;;5.70;1.30;;;;;;;15.09;57.06;101021.36;108071;1273;75488;-87
2022/07/29 03:22:06;;;;;;;5.20;1.40;;;;;;;15.09;57.40;101018.70;107823;1274;60433;-87
2022/07/29 03:24:35;;;;;;;7.60;1.40;;;;;;;15.08;57.30;101018.47;108047;1274;59563;-88
2022/07/29 03:27:02;;;;;;;6.20;1.50;;;;;;;15.07;57.62;101017.94;108134;1273;73998;-87
2022/07/29 03:29:30;;;;;;;4.20;1.50;;;;;;;15.05;57.51;101018.33;107882;1273;72198;-87
2022/07/29 03:32:03;;;;;;;4.30;1.30;;;;;;;15.04;57.42;101016.73;108126;1273;73336;-87
2022/07/29 03:34:36;;;;;;;4.40;1.60;;;;;;;15.03;57.58;101016.77;107819;1273;60154;-87
2022/07/29 03:37:03;;;;;;;4.50;1.50;;;;;;;15.02;57.77;101015.77;108054;1273;60806;-88
2022/07/29 03:39:36;;;;;;;6.40;1.50;;;;;;;15.01;58.16;101018.57;108067;1274;74794;-87
2022/07/29 03:42:07;;;;;;;4.20;1.60;;;;;;;14.99;58.16;101015.89;107974;1273;72425;-88
2022/07/29 03:44:34;;;;;;;3.50;1.20;;;;;;;14.99;58.11;101013.66;108090;1273;74238;-88
2022/07/29 03:47:03;;;;;;;3.50;1.60;;;;;;;14.99;58.37;101015.22;108126;1273;60693;-88
2022/07/29 03:49:31;;;;;;;3.80;1.30;;;;;;;14.99;58.23;101016.66;108108;1274;60614;-88
2022/07/29 03:51:58;;;;;;;3.40;1.20;;;;;;;14.98;58.26;101014.30;107992;1274;75166;-88
2022/07/29 03:54:26;;;;;;;3.90;1.70;;;;;;;14.98;58.53;101017.27;108146;1273;70471;-86
2022/07/29 03:56:54;;;;;;;6.80;1.50;;;;;;;14.97;58.61;101018.63;108059;1273;72894;-87
2022/07/29 03:59:22;;;;;;;4.60;1.50;;;;;;;14.96;58.48;101021.32;107983;1273;62273;-87
2022/07/29 04:01:49;;;;;;;5.60;1.40;;;;;;;14.96;58.72;101019.76;108056;1273;62751;-88
2022/07/29 04:04:17;;;;;;;5.70;1.60;;;;;;;14.99;58.73;101020.61;108148;1274;77677;-87
2022/07/29 04:06:46;;;;;;;5.10;1.70;;;;;;;15.01;58.85;101025.34;108087;1273;72385;-88
2022/07/29 04:09:14;;;;;;;6.10;1.50;;;;;;;15.02;58.85;101019.14;108144;1273;74185;-88
2022/07/29 04:11:42;;;;;;;4.30;1.50;;;;;;;15.04;58.73;101021.52;107956;1274;62669;-87
2022/07/29 04:14:29;;;;;;;3.90;1.40;;;;;;;15.08;58.73;101025.09;107901;1273;62422;-88
2022/07/29 04:16:59;;;;;;;3.20;1.30;;;;;;;15.09;58.78;101021.08;107987;1274;76289;-88
2022/07/29 04:19:26;;;;;;;4.70;1.30;;;;;;;15.12;58.98;101022.86;107861;1274;73447;-88
2022/07/29 04:21:54;;;;;;;2.90;1.30;;;;;;;15.14;58.81;101019.38;107974;1273;75100;-87
2022/07/29 04:24:21;;;;;;;5.40;1.70;;;;;;;15.14;58.97;101015.42;107781;1273;63019;-88
2022/07/29 04:26:48;;;;;;;4.60;1.60;;;;;;;15.17;58.79;101015.98;108050;1274;60883;-88
2022/07/29 04:29:16;;;;;;;4.90;2.00;;;;;;;15.19;58.92;101018.00;107941;1273;76030;-87
2022/07/29 04:31:43;;;;;;;4.70;1.60;;;;;;;15.22;58.94;101017.94;108037;1273;71961;-87
2022/07/29 04:34:11;;;;;;;7.00;2.20;;;;;;;15.24;58.90;101019.30;107870;1273;72763;-87
2022/07/29 04:36:39;;;;;;;4.20;1.50;;;;;;;15.26;58.63;101019.73;108017;1273;62297;-88
2022/07/29 04:39:06;;;;;;;3.50;1.50;;;;;;;15.29;58.94;101023.98;107925;1275;60805;-88
2022/07/29 04:41:33;;;;;;;4.00;1.50;;;;;;;15.30;58.86;101022.46;108104;1273;75282;-88
2022/07/29 04:44:04;;;;;;;4.50;1.50;;;;;;;15.33;58.85;101026.55;108044;1273;71178;-87
2022/07/29 04:46:35;;;;;;;3.60;1.60;;;;;;;15.33;58.98;101025.64;107995;1273;75080;-87
2022/07/29 04:49:03;;;;;;;3.50;1.70;;;;;;;15.35;58.83;101026.30;107960;1273;63040;-87
2022/07/29 04:51:30;;;;;;;3.20;1.40;;;;;;;15.37;58.86;101028.29;108108;1273;60485;-87
2022/07/29 04:53:58;;;;;;;4.70;1.50;;;;;;;15.39;58.77;101033.31;107976;1273;75056;-86
2022/07/29 04:56:25;;;;;;;4.90;1.70;;;;;;;15.41;58.92;101028.77;108113;1273;72792;-87
2022/07/29 04:58:53;;;;;;;3.70;1.60;;;;;;;15.43;58.91;101024.20;107829;1273;75125;-87
2022/07/29 05:01:20;;;;;;;4.60;1.50;;;;;;;15.46;58.93;101022.53;108025;1273;63115;-87
2022/07/29 05:03:47;;;;;;;3.80;1.50;;;;;;;15.50;58.87;101016.02;107892;1273;62244;-87
2022/07/29 05:06:15;;;;;;;6.60;1.70;;;;;;;15.56;58.84;101017.06;107998;1274;75453;-87
2022/07/29 05:08:42;;;;;;;7.80;1.70;;;;;;;15.64;58.64;101023.42;107706;1273;71026;-87
2022/07/29 05:11:24;;;;;;;5.40;1.70;;;;;;;15.69;58.66;101020.65;107974;1274;73969;-87
2022/07/29 05:13:56;;;;;;;3.80;1.60;;;;;;;15.76;58.48;101022.85;108016;1273;62303;-87
2022/07/29 05:16:24;;;;;;;4.20;1.60;;;;;;;15.80;58.40;101020.66;107952;1274;61877;-88
2022/07/29 05:18:52;;;;;;;4.80;1.60;;;;;;;15.89;58.56;101020.94;107871;1273;75396;-88
2022/07/29 05:21:19;;;;;;;4.30;1.50;;;;;;;15.98;58.24;101026.31;107931;1276;71771;-87
2022/07/29 05:23:47;;;;;;;4.10;1.70;;;;;;;16.06;58.10;101025.63;107995;1274;71732;-86
2022/07/29 05:26:14;;;;;;;4.70;1.90;;;;;;;16.14;58.03;101028.98;108010;1273;62239;-87
2022/07/29 05:28:41;;;;;;;5.00;1.70;;;;;;;16.22;57.84;101035.20;108075;1273;60580;-87
2022/07/29 05:31:14;;;;;;;6.20;1.70;;;;;;;16.29;57.70;101035.64;108050;1273;75992;-87
2022/07/29 05:33:41;;;;;;;4.90;1.60;;;;;;;16.38;57.70;101027.81;107934;1273;71300;-87
2022/07/29 05:36:11;;;;;;;4.20;1.80;;;;;;;16.45;57.40;101024.94;107924;1273;72945;-87
2022/07/29 05:38:39;;;;;;;6.80;1.70;;;;;;;16.51;57.31;101025.39;108086;1273;60005;-87
2022/07/29 05:41:12;;;;;;;4.10;1.60;;;;;;;16.62;57.37;101022.47;107951;1273;61240;-87
2022/07/29 05:43:39;;;;;;;4.50;1.70;;;;;;;16.72;57.16;101020.92;107932;1274;76533;-87
2022/07/29 05:46:13;;;;;;;6.10;1.50;;;;;;;16.83;57.04;101021.93;107995;1273;72257;-87
2022/07/29 05:48:40;;;;;;;5.50;1.90;;;;;;;16.94;56.60;101023.20;108115;1273;72930;-87
2022/07/29 05:51:11;;;;;;;4.10;1.80;;;;;;;17.01;56.50;101016.63;108060;1273;59770;-86
2022/07/29 05:53:38;;;;;;;5.00;1.70;;;;;;;17.09;56.26;101020.85;108043;1273;61895;-88
2022/07/29 05:56:11;;;;;;;4.10;2.00;;;;;;;17.16;56.17;101022.29;108189;1273;76371;-87
2022/07/29 05:58:38;;;;;;;4.60;1.30;;;;;;;17.24;55.96;101020.48;108148;1273;71521;-87
2022/07/29 06:01:11;;;;;;;3.90;1.90;;;;;;;17.33;55.97;101021.00;107831;1273;73572;-88
2022/07/29 06:03:40;;;;;;;5.10;1.70;;;;;;;17.45;55.80;101020.87;107985;1274;60484;-87
2022/07/29 06:06:11;;;;;;;5.90;1.80;;;;;;;17.58;55.82;101020.28;107939;1273;60371;-87
2022/07/29 06:08:38;;;;;;;4.90;1.70;;;;;;;17.71;54.96;101021.74;107880;1274;74881;-87
2022/07/29 06:11:11;;;;;;;17.10;15.30;;;;;;;17.80;54.61;101022.56;108030;1274;71712;-85
2022/07/29 06:13:38;;;;;;;372.90;335.10;;;;;;;17.86;54.62;101020.16;108093;1274;72950;-86
2022/07/29 06:16:11;;;;;;;175.90;158.60;;;;;;;17.89;54.69;101016.73;108075;1274;60350;-86
2022/07/29 06:18:52;;;;;;;4.30;2.10;;;;;;;17.90;54.46;101013.42;107898;1274;61278;-86
2022/07/29 06:21:19;;;;;;;8.90;6.00;;;;;;;17.92;54.44;101014.59;108077;1273;76312;-86
2022/07/29 06:23:46;;;;;;;14.40;8.20;;;;;;;17.97;54.40;101011.64;108063;1273;71836;-86
2022/07/29 06:26:14;;;;;;;6.40;1.70;;;;;;;18.03;54.45;101006.35;107917;1274;72905;-86
2022/07/29 06:28:41;;;;;;;4.00;2.10;;;;;;;18.11;54.44;101011.14;107901;1273;61426;-85
2022/07/29 06:31:11;;;;;;;4.10;2.00;;;;;;;18.21;54.24;101012.73;107948;1276;60573;-85
2022/07/29 06:33:39;;;;;;;7.30;1.70;;;;;;;18.34;53.90;101015.55;107921;1273;74824;-86
2022/07/29 06:36:11;;;;;;;5.40;1.90;;;;;;;18.47;53.78;101021.89;108152;1273;72591;-87
2022/07/29 06:38:40;;;;;;;5.20;1.90;;;;;;;18.61;53.46;101015.70;107873;1274;73643;-87
2022/07/29 06:41:17;;;;;;;5.30;1.90;;;;;;;18.74;53.02;101013.02;107922;1273;61433;-86
2022/07/29 06:43:45;;;;;;;4.60;1.80;;;;;;;18.87;52.77;101008.95;108133;1273;60266;-87
2022/07/29 06:46:20;;;;;;;5.30;1.70;;;;;;;19.03;52.73;101004.53;108131;1272;73320;-85
2022/07/29 06:48:48;;;;;;;4.20;1.90;;;;;;;19.22;52.13;100995.70;107792;1274;70719;-85
2022/07/29 06:51:16;;;;;;;3.90;1.70;;;;;;;19.42;51.93;101001.02;107914;1274;72817;-84
2022/07/29 06:53:51;;;;;;;5.60;2.10;;;;;;;19.61;51.02;100998.09;107685;1273;61895;-85
2022/07/29 06:56:32;;;;;;;7.00;2.20;;;;;;;19.76;50.91;100996.25;108244;1273;60588;-84
2022/07/29 06:59:07;;;;;;;4.70;1.80;;;;;;;19.94;50.82;100996.09;108046;1273;76538;-85
2022/07/29 07:01:45;;;;;;;5.50;1.80;;;;;;;20.07;50.54;100991.52;107829;1276;72512;-83
2022/07/29 07:04:13;;;;;;;7.10;1.90;;;;;;;20.17;49.74;100993.05;107778;1264;171690;-85
2022/07/29 07:06:40;;;;;;;5.20;1.80;;;;;;;20.25;49.65;100994.77;108280;1273;60086;-85
2022/07/29 07:09:07;;;;;;;6.10;2.60;;;;;;;20.34;49.28;101003.98;108312;1274;60437;-87
2022/07/29 07:11:35;;;;;;;4.50;1.90;;;;;;;20.43;48.90;101013.23;108131;1274;74271;-86
2022/07/29 07:14:01;;;;;;;6.10;2.10;;;;;;;20.47;48.73;101015.39;107836;1275;72592;-86
2022/07/29 07:16:31;;;;;;;4.90;1.80;;;;;;;20.51;48.69;101014.46;108260;1274;74226;-84
2022/07/29 07:21:36;;;;;;;5.10;1.90;;;;;;;20.49;48.16;101012.30;108159;1273;59692;-86
2022/07/29 07:24:06;;;;;;;21.80;16.60;;;;;;;20.53;48.43;101016.61;107905;1274;75403;-86
2022/07/29 07:26:33;;;;;;;3.80;1.70;;;;;;;20.60;48.24;101019.94;107978;1274;72429;-86
2022/07/29 07:29:02;;;;;;;5.20;1.70;;;;;;;20.60;48.08;101018.27;107923;1274;73263;-86
2022/07/29 07:31:29;;;;;;;5.50;2.20;;;;;;;20.60;47.68;101009.86;108443;1274;59712;-86
2022/07/29 07:33:57;;;;;;;4.70;1.80;;;;;;;20.62;47.90;101007.45;108284;1274;59701;-85
2022/07/29 07:36:24;;;;;;;5.90;1.90;;;;;;;20.71;48.04;101004.11;108491;1274;74855;-86
2022/07/29 07:38:52;;;;;;;5.40;2.50;;;;;;;20.76;47.76;100997.46;108455;1274;73784;-86
2022/07/29 07:41:19;;;;;;;8.70;2.40;;;;;;;20.85;47.63;100995.32;108456;1275;72931;-85
2022/07/29 07:43:46;;;;;;;5.20;2.00;;;;;;;20.88;47.56;100993.18;108216;1274;60608;-86
2022/07/29 07:46:14;;;;;;;5.80;2.20;;;;;;;20.93;47.47;100994.04;107869;1276;62198;-86
2022/07/29 07:48:41;;;;;;;6.10;1.90;;;;;;;21.00;47.50;100997.44;107828;1274;77005;-86
2022/07/29 07:51:15;;;;;;;5.30;1.90;;;;;;;21.05;47.61;100995.52;108046;1275;71923;-86
2022/07/29 07:53:44;;;;;;;4.70;1.90;;;;;;;21.12;47.24;100994.01;108215;1274;73089;-81
2022/07/29 07:56:15;;;;;;;6.30;1.80;;;;;;;21.18;47.13;100991.55;108059;1274;60622;-82
2022/07/29 07:58:42;;;;;;;5.60;1.90;;;;;;;21.22;46.68;100989.50;108101;1276;63847;-86
2022/07/29 08:01:11;;;;;;;4.50;2.10;;;;;;;21.21;46.63;100997.98;108067;1276;76170;-84
2022/07/29 08:03:38;;;;;;;3.80;1.80;;;;;;;21.23;46.63;100999.73;108254;1275;70592;-84
2022/07/29 08:06:13;;;;;;;4.90;2.10;;;;;;;21.25;46.48;100999.89;108173;1274;72940;-84
2022/07/29 08:08:40;;;;;;;3.30;1.70;;;;;;;21.29;46.67;101004.34;107969;1274;59384;-83
2022/07/29 08:11:14;;;;;;;6.40;1.90;;;;;;;21.36;46.86;101006.27;107820;1276;59704;-83
2022/07/29 08:13:41;;;;;;;4.50;2.00;;;;;;;21.39;46.86;101009.95;108035;1276;76073;-83
2022/07/29 08:16:15;;;;;;;3.50;2.00;;;;;;;21.45;46.79;101008.59;107981;1275;71146;-86
2022/07/29 08:18:45;;;;;;;5.40;2.00;;;;;;;21.51;46.66;101010.05;108049;1274;72836;-88
2022/07/29 08:21:22;;;;;;;6.50;1.90;;;;;;;21.55;46.15;101006.63;107823;1269;61901;-88
2022/07/29 08:36:57;;;;;;;4.30;1.90;;;;;;;21.83;45.79;100994.27;108221;1272;61285;-88
2022/07/29 08:39:24;;;;;;;6.20;2.40;;;;;;;21.87;45.89;100996.68;108146;1273;75264;-87
2022/07/29 08:41:52;;;;;;;5.90;2.30;;;;;;;21.90;45.77;100996.02;108149;1274;72405;-85
2022/07/29 08:44:23;;;;;;;6.60;2.10;;;;;;;21.88;45.37;101000.27;108029;1274;73094;-84
2022/07/29 08:46:57;;;;;;;6.90;2.90;;;;;;;21.88;45.36;101000.22;108328;1274;61420;-87
2022/07/29 08:49:24;;;;;;;6.60;2.30;;;;;;;21.92;45.43;101001.30;108274;1273;60439;-87
2022/07/29 08:51:53;;;;;;;6.20;1.90;;;;;;;21.99;45.69;101002.47;107894;1274;75425;-85
2022/07/29 08:54:23;;;;;;;5.30;2.20;;;;;;;22.06;45.57;101000.85;108216;1274;71939;-86
2022/07/29 08:56:51;;;;;;;10.10;5.70;;;;;;;22.12;45.54;100999.98;108130;1274;73121;-84
2022/07/29 08:59:24;;;;;;;4.10;1.80;;;;;;;22.18;45.22;101005.44;108124;1274;60669;-85
2022/07/29 09:01:53;;;;;;;6.20;2.60;;;;;;;22.19;45.41;101005.72;107840;1274;61996;-84
2022/07/29 09:04:22;;;;;;;5.30;2.10;;;;;;;22.26;45.25;101006.78;108146;1274;77554;-82
2022/07/29 09:06:51;;;;;;;6.80;3.50;;;;;;;22.35;45.06;101005.42;108124;1274;72272;-86
2022/07/29 09:09:19;;;;;;;5.50;2.20;;;;;;;22.41;44.33;101003.89;108024;1273;73983;-84
2022/07/29 09:11:46;;;;;;;7.10;1.90;;;;;;;22.48;44.19;101003.06;108021;1274;60496;-85
2022/07/29 09:14:13;;;;;;;8.10;1.80;;;;;;;22.58;44.31;101005.35;108208;1273;61878;-85
2022/07/29 09:16:44;;;;;;;6.90;1.80;;;;;;;22.76;44.30;101006.64;108422;1274;76300;-86
2022/07/29 09:19:21;;;;;;;6.20;2.00;;;;;;;22.96;43.70;101003.35;108373;1274;71745;-85
2022/07/29 09:21:57;;;;;;;6.80;2.20;;;;;;;23.22;43.43;101007.11;108459;1274;71551;-86
2022/07/29 09:24:39;;;;;;;7.10;2.70;;;;;;;23.53;42.90;101001.52;108154;1274;62795;-83
2022/07/29 09:27:11;;;;;;;5.00;2.00;;;;;;;23.82;42.22;100998.58;108026;1274;61165;-83
2022/07/29 09:29:38;;;;;;;4.50;1.80;;;;;;;24.05;42.09;100996.04;108115;1273;75105;-83
2022/07/29 09:32:09;;;;;;;8.10;1.90;;;;;;;24.25;41.88;100998.05;108191;1274;72840;-85
2022/07/29 09:34:37;;;;;;;3.50;1.80;;;;;;;24.45;41.39;100995.73;108037;1273;73125;-84
2022/07/29 09:37:05;;;;;;;5.30;1.80;;;;;;;24.58;41.01;100996.38;108213;1274;60811;-85
2022/07/29 09:44:52;;;;;;;5.40;1.80;;;;;;;24.61;39.90;100977.95;108403;1274;71067;-87
2022/07/29 09:47:53;;;;;;;6.10;2.60;;;;;;;24.68;40.39;100975.11;108148;1264;72242;-87
2022/07/29 09:50:50;;;;;;;7.10;2.70;;;;;;;24.82;40.70;100973.02;108050;1276;61904;-84
2022/07/29 09:53:47;;;;;;;7.20;2.20;;;;;;;24.93;40.21;100967.70;108213;1276;61628;-86
2022/07/29 09:56:19;;;;;;;7.00;2.30;;;;;;;25.00;40.13;100963.88;107983;1276;75941;-87
2022/07/29 09:58:46;;;;;;;9.90;2.20;;;;;;;25.02;40.40;100965.52;108072;1276;71480;-87
2022/07/29 10:01:15;;;;;;;8.80;2.10;;;;;;;25.04;40.16;100965.21;107973;1276;74624;-84
2022/07/29 10:03:52;;;;;;;6.60;2.00;;;;;;;25.05;40.12;100961.46;107830;1276;60566;-85
2022/07/29 10:06:19;;;;;;;6.50;1.80;;;;;;;25.09;40.33;100959.31;107989;1276;62047;-86
2022/07/29 10:08:49;;;;;;;6.50;2.00;;;;;;;25.12;40.16;100957.09;107930;1276;76111;-86
2022/07/29 10:11:17;;;;;;;5.90;1.90;;;;;;;25.16;40.08;100958.37;107574;1276;73357;-88
2022/07/29 10:13:50;;;;;;;11.80;2.30;;;;;;;25.16;39.87;100954.88;107612;1276;73735;-86
2022/07/29 10:16:21;;;;;;;6.70;2.10;;;;;;;25.14;40.19;100954.98;108053;1276;62130;-87
2022/07/29 10:18:48;;;;;;;9.90;2.30;;;;;;;25.12;39.59;100953.52;107916;1276;62638;-88
2022/07/29 10:21:17;;;;;;;6.40;2.70;;;;;;;25.12;39.74;100951.50;107724;1276;73403;-86
2022/07/29 10:24:01;;;;;;;5.70;1.90;;;;;;;25.15;39.99;100950.15;107949;1275;69370;-86
2022/07/29 10:26:30;;;;;;;6.40;1.90;;;;;;;25.22;40.05;100939.77;107887;1276;73711;-87
2022/07/29 10:28:57;;;;;;;7.10;2.40;;;;;;;25.39;39.68;100944.93;108003;1276;61420;-86
2022/07/29 10:31:31;;;;;;;5.90;1.80;;;;;;;25.51;39.19;100942.23;107919;1274;59452;-86
2022/07/29 10:34:04;;;;;;;6.20;1.90;;;;;;;25.67;39.06;100944.11;107653;1276;74458;-86
2022/07/29 10:39:30;;;;;;;7.30;1.90;;;;;;;26.06;39.31;100944.75;108172;1264;72186;-87
2022/07/29 10:42:28;;;;;;;4.50;1.50;;;;;;;26.26;38.50;100947.45;108252;1274;60630;-87
2022/07/29 10:45:05;;;;;;;4.60;1.70;;;;;;;26.34;38.11;100944.63;108310;1274;59272;-87
2022/07/29 10:47:33;;;;;;;6.10;2.10;;;;;;;26.46;38.31;100946.56;108058;1274;76177;-87
2022/07/29 10:50:10;;;;;;;6.70;1.70;;;;;;;26.48;37.26;100948.77;107993;1274;71466;-87
2022/07/29 10:52:57;;;;;;;5.60;1.80;;;;;;;26.44;37.24;100945.14;108235;1274;74513;-87
2022/07/29 10:55:38;;;;;;;7.50;2.00;;;;;;;26.44;37.96;100939.97;107813;1274;60780;-86
2022/07/29 10:58:15;;;;;;;5.70;1.90;;;;;;;26.52;38.20;100938.27;108051;1274;61559;-86
2022/07/29 11:00:48;;;;;;;4.70;1.80;;;;;;;26.47;37.54;100936.86;107755;1274;598405;-87
2022/07/29 11:03:40;;;;;;;6.80;1.90;;;;;;;26.46;38.03;100938.89;108079;1274;70422;-86
2022/07/29 11:06:16;;;;;;;8.10;2.70;;;;;;;26.43;37.65;100937.63;108135;1274;73186;-86
2022/07/29 11:08:43;;;;;;;4.80;1.70;;;;;;;26.38;37.86;100934.02;107905;1274;61227;-86
2022/07/29 11:11:27;;;;;;;6.00;1.90;;;;;;;26.39;38.27;100934.42;108182;1274;60754;-86
2022/07/29 11:13:55;;;;;;;5.50;1.70;;;;;;;26.41;37.68;100932.42;108162;1273;76080;-85
2022/07/29 11:16:23;;;;;;;7.20;1.60;;;;;;;26.41;37.62;100932.79;107816;1273;71469;-86
2022/07/29 11:19:13;;;;;;;8.90;2.00;;;;;;;26.46;37.79;100937.20;108286;1273;74643;-87
2022/07/29 11:21:47;;;;;;;7.20;1.90;;;;;;;26.40;37.93;100932.90;107979;1273;61463;-87
2022/07/29 11:24:30;;;;;;;6.40;1.90;;;;;;;26.37;37.95;100935.92;108028;1274;59429;-86
2022/07/29 11:27:14;;;;;;;6.00;1.80;;;;;;;26.36;38.46;100935.37;108138;1273;75664;-87
2022/07/29 11:29:57;;;;;;;6.20;1.60;;;;;;;26.30;38.61;100926.40;108052;1274;71865;-87
2022/07/29 11:32:37;;;;;;;6.80;1.70;;;;;;;26.35;38.76;100931.13;108193;1274;73319;-87
2022/07/29 11:35:24;;;;;;;4.30;1.60;;;;;;;26.32;38.74;100923.95;107990;1273;60880;-88
2022/07/29 11:41:19;;;;;;;5.80;1.90;;;;;;;26.33;38.22;100928.89;108288;1265;74036;-88
2022/07/29 11:43:51;;;;;;;5.90;1.60;;;;;;;26.29;38.06;100928.36;108194;1273;73061;-84
2022/07/29 11:46:43;;;;;;;4.20;1.50;;;;;;;26.21;38.01;100921.58;107922;1274;73150;-85
2022/07/29 11:49:13;;;;;;;6.80;1.80;;;;;;;26.14;38.33;100916.30;108084;1273;59401;-85
2022/07/29 11:51:42;;;;;;;3.60;1.80;;;;;;;26.21;38.75;100922.02;108243;1273;61283;-87
2022/07/29 11:54:21;;;;;;;4.60;1.60;;;;;;;26.21;38.25;100921.80;108015;1274;75810;-87
2022/07/29 11:56:53;;;;;;;3.50;1.60;;;;;;;26.31;38.42;100920.63;107925;1274;72393;-86
2022/07/29 11:59:21;;;;;;;7.50;1.70;;;;;;;26.40;38.36;100920.23;107894;1274;75487;-86
2022/07/29 12:02:00;;;;;;;4.70;1.50;;;;;;;26.50;38.52;100916.24;107939;1274;61681;-87
2022/07/29 12:04:58;;;;;;;7.10;3.60;;;;;;;26.63;38.00;100916.35;108086;1274;59305;-87